createdAt,value
2022-11-13T00:01:54.811Z,15.90
2022-11-13T00:04:42.682Z,15.97
2022-11-13T00:07:29.568Z,14.00
2022-11-13T00:10:17.020Z,14.57
2022-11-13T00:13:03.302Z,16.67
2022-11-13T00:15:57.933Z,17.27
2022-11-13T00:18:44.727Z,16.50
2022-11-13T00:21:33.179Z,17.60
2022-11-13T00:24:19.670Z,16.87
2022-11-13T00:27:06.058Z,22.57
2022-11-13T00:29:52.595Z,18.37
2022-11-13T00:32:40.161Z,17.23
2022-11-13T00:35:26.465Z,21.50
2022-11-13T00:38:14.336Z,17.97
2022-11-13T00:41:01.481Z,17.67
2022-11-13T00:43:48.197Z,17.30
2022-11-13T00:46:34.810Z,17.53
2022-11-13T00:49:21.075Z,16.87
2022-11-13T00:52:07.637Z,16.90
2022-11-13T00:54:55.648Z,16.50
2022-11-13T00:57:42.072Z,15.67
2022-11-13T01:00:28.505Z,16.93
2022-11-13T01:03:16.382Z,16.60
2022-11-13T01:06:09.950Z,15.23
2022-11-13T01:08:57.072Z,15.83
2022-11-13T01:11:44.935Z,15.90
2022-11-13T01:14:31.173Z,14.40
2022-11-13T01:17:17.748Z,13.40
2022-11-13T01:20:05.372Z,13.87
2022-11-13T01:22:52.175Z,17.67
2022-11-13T01:25:38.761Z,13.33
2022-11-13T01:28:26.664Z,13.47
2022-11-13T01:31:16.718Z,11.73
2022-11-13T01:34:02.962Z,13.27
2022-11-13T01:36:49.715Z,12.33
2022-11-13T01:39:36.177Z,13.03
2022-11-13T01:42:22.416Z,12.40
2022-11-13T01:45:42.415Z,11.43
2022-11-13T01:48:35.654Z,8.43
2022-11-13T01:51:27.242Z,7.80
2022-11-13T01:54:17.859Z,7.90
2022-11-13T01:57:05.573Z,7.77
2022-11-13T01:59:56.564Z,7.90
2022-11-13T02:02:42.904Z,7.90
2022-11-13T02:05:31.153Z,9.10
2022-11-13T02:08:17.712Z,7.83
2022-11-13T02:11:04.602Z,7.70
2022-11-13T02:13:51.280Z,8.07
2022-11-13T02:16:38.957Z,7.93
2022-11-13T02:19:29.145Z,7.50
2022-11-13T02:22:27.063Z,7.73
2022-11-13T02:25:15.737Z,7.63
2022-11-13T02:28:02.740Z,7.80
2022-11-13T02:30:49.406Z,8.23
2022-11-13T02:33:36.429Z,8.27
2022-11-13T02:36:26.447Z,7.93
2022-11-13T02:39:14.794Z,7.50
2022-11-13T02:42:02.568Z,10.33
2022-11-13T02:44:48.729Z,7.07
2022-11-13T02:47:35.825Z,8.10
2022-11-13T02:50:22.499Z,7.83
2022-11-13T02:53:08.897Z,7.00
2022-11-13T02:55:55.419Z,7.20
2022-11-13T02:58:43.591Z,6.90
2022-11-13T03:01:30.356Z,6.90
2022-11-13T03:04:17.158Z,6.80
2022-11-13T03:07:04.096Z,8.07
2022-11-13T03:09:50.916Z,7.93
2022-11-13T03:12:37.712Z,6.00
2022-11-13T03:15:25.753Z,6.80
2022-11-13T03:18:15.049Z,6.17
2022-11-13T03:21:08.222Z,7.07
2022-11-13T03:23:55.498Z,6.07
2022-11-13T03:26:42.041Z,6.30
2022-11-13T03:29:28.263Z,6.37
2022-11-13T03:32:16.430Z,6.53
2022-11-13T03:35:02.816Z,6.70
2022-11-13T03:37:49.439Z,6.90
2022-11-13T03:40:35.847Z,8.60
2022-11-13T03:43:22.235Z,7.17
2022-11-13T03:46:08.860Z,6.97
2022-11-13T03:48:56.932Z,7.37
2022-11-13T03:51:43.315Z,8.00
2022-11-13T03:54:29.636Z,7.57
2022-11-13T03:57:16.533Z,7.50
2022-11-13T04:00:05.669Z,7.20
2022-11-13T04:02:52.122Z,6.80
2022-11-13T04:05:40.703Z,7.13
2022-11-13T04:08:27.381Z,7.70
2022-11-13T04:11:14.651Z,7.20
2022-11-13T04:14:01.237Z,6.90
2022-11-13T04:16:47.694Z,6.37
2022-11-13T04:19:34.420Z,6.67
2022-11-13T04:22:22.229Z,7.27
2022-11-13T04:25:09.823Z,7.67
2022-11-13T04:27:56.766Z,7.30
2022-11-13T04:30:43.380Z,7.63
2022-11-13T04:33:29.948Z,7.87
2022-11-13T04:36:16.248Z,7.87
2022-11-13T04:39:04.715Z,7.97
2022-11-13T04:42:08.958Z,7.90
2022-11-13T04:44:55.455Z,7.43
2022-11-13T04:47:42.156Z,7.90
2022-11-13T04:50:28.744Z,7.60
2022-11-13T04:53:15.180Z,7.73
2022-11-13T04:56:03.023Z,7.27
2022-11-13T04:58:49.577Z,7.90
2022-11-13T05:01:37.084Z,7.23
2022-11-13T05:04:23.595Z,6.87
2022-11-13T05:07:09.730Z,8.10
2022-11-13T05:09:56.095Z,7.90
2022-11-13T05:12:44.117Z,7.20
2022-11-13T05:15:30.509Z,7.10
2022-11-13T05:18:17.085Z,6.70
2022-11-13T05:21:03.840Z,6.67
2022-11-13T05:23:50.212Z,6.17
2022-11-13T05:26:38.555Z,6.50
2022-11-13T05:29:26.475Z,6.17
2022-11-13T05:32:13.251Z,7.83
2022-11-13T05:34:59.384Z,6.77
2022-11-13T05:37:45.919Z,5.50
2022-11-13T05:40:32.500Z,5.80
2022-11-13T05:43:18.756Z,6.17
2022-11-13T05:46:08.543Z,5.50
2022-11-13T05:48:59.603Z,5.73
2022-11-13T05:51:45.955Z,5.97
2022-11-13T05:54:32.353Z,6.03
2022-11-13T05:57:20.136Z,5.87
2022-11-13T06:00:08.306Z,5.13
2022-11-13T06:02:56.256Z,5.10
2022-11-13T06:05:42.573Z,5.17
2022-11-13T06:08:29.281Z,5.07
2022-11-13T06:11:17.075Z,5.47
2022-11-13T06:14:03.447Z,5.20
2022-11-13T06:16:50.176Z,5.37
2022-11-13T06:19:37.804Z,4.63
2022-11-13T06:22:24.076Z,4.77
2022-11-13T06:25:10.855Z,4.80
2022-11-13T06:27:57.253Z,4.93
2022-11-13T06:30:43.744Z,4.83
2022-11-13T06:33:30.051Z,5.93
2022-11-13T06:36:21.554Z,5.20
2022-11-13T06:39:09.457Z,5.90
2022-11-13T06:41:56.237Z,6.20
2022-11-13T06:44:42.723Z,5.47
2022-11-13T06:47:29.751Z,5.57
2022-11-13T06:50:16.077Z,5.60
2022-11-13T06:53:03.971Z,5.27
2022-11-13T06:55:51.799Z,6.00
2022-11-13T06:58:38.789Z,5.70
2022-11-13T07:01:26.904Z,6.20
2022-11-13T07:04:13.839Z,6.33
2022-11-13T07:07:03.115Z,5.47
2022-11-13T07:09:50.887Z,5.50
2022-11-13T07:12:37.763Z,5.40
2022-11-13T07:15:23.948Z,5.93
2022-11-13T07:18:10.493Z,6.37
2022-11-13T07:20:57.285Z,6.40
2022-11-13T07:23:44.507Z,6.67
2022-11-13T07:26:32.527Z,7.20
2022-11-13T07:29:18.765Z,6.87
2022-11-13T07:32:05.965Z,5.60
2022-11-13T07:34:52.554Z,6.00
2022-11-13T07:37:39.089Z,5.70
2022-11-13T07:40:25.760Z,5.83
2022-11-13T07:43:13.757Z,5.97
2022-11-13T07:46:00.234Z,5.67
2022-11-13T07:48:46.884Z,6.20
2022-11-13T07:51:33.385Z,6.00
2022-11-13T07:54:19.656Z,5.33
2022-11-13T07:57:06.177Z,6.53
2022-11-13T07:59:56.190Z,5.57
2022-11-13T08:02:44.957Z,5.57
2022-11-13T08:05:31.820Z,5.43
2022-11-13T08:08:18.234Z,5.80
2022-11-13T08:11:06.871Z,5.60
2022-11-13T08:13:53.287Z,6.30
2022-11-13T08:16:40.959Z,6.00
2022-11-13T08:19:27.187Z,5.63
2022-11-13T08:22:13.844Z,6.10
2022-11-13T08:25:00.519Z,6.13
2022-11-13T08:27:47.247Z,5.60
2022-11-13T08:30:33.798Z,5.33
2022-11-13T08:33:21.784Z,5.90
2022-11-13T08:36:09.811Z,6.20
2022-11-13T08:38:56.251Z,5.77
2022-11-13T08:41:42.682Z,5.03
2022-11-13T08:44:29.184Z,5.73
2022-11-13T08:47:16.119Z,5.30
2022-11-13T08:50:04.060Z,6.30
2022-11-13T08:52:55.242Z,5.67
2022-11-13T08:55:41.946Z,5.60
2022-11-13T08:58:28.890Z,5.83
2022-11-13T09:01:16.836Z,6.10
2022-11-13T09:04:03.677Z,5.57
2022-11-13T09:06:51.230Z,5.83
2022-11-13T09:09:37.801Z,5.63
2022-11-13T09:12:24.131Z,6.20
2022-11-13T09:15:12.339Z,6.27
2022-11-13T09:18:07.376Z,6.20
2022-11-13T09:20:53.892Z,6.07
2022-11-13T09:23:41.891Z,5.43
2022-11-13T09:26:28.228Z,6.27
2022-11-13T09:29:14.870Z,6.10
2022-11-13T09:32:01.528Z,6.20
2022-11-13T09:34:48.232Z,5.63
2022-11-13T09:37:35.243Z,5.53
2022-11-13T09:40:30.432Z,5.23
2022-11-13T09:43:29.809Z,5.53
2022-11-13T09:46:22.869Z,6.10
2022-11-13T09:49:16.520Z,6.77
2022-11-13T09:52:11.487Z,6.20
2022-11-13T09:54:57.990Z,5.70
2022-11-13T09:57:52.629Z,5.83
2022-11-13T10:00:39.453Z,5.33
2022-11-13T10:07:05.228Z,6.33
2022-11-13T10:10:06.668Z,6.50
2022-11-13T10:12:57.360Z,6.40
2022-11-13T10:15:47.357Z,6.10
2022-11-13T10:18:38.869Z,6.53
2022-11-13T10:21:33.543Z,6.33
2022-11-13T10:24:25.795Z,6.27
2022-11-13T10:27:14.339Z,6.40
2022-11-13T10:30:03.028Z,6.53
2022-11-13T10:32:50.027Z,5.57
2022-11-13T10:35:57.405Z,5.93
2022-11-13T10:38:46.253Z,5.83
2022-11-13T10:41:33.406Z,5.60
2022-11-13T10:44:22.982Z,5.93
2022-11-13T10:47:26.480Z,5.80
2022-11-13T10:50:22.653Z,5.90
2022-11-13T10:53:17.306Z,6.57
2022-11-13T10:56:15.591Z,5.87
2022-11-13T10:59:04.751Z,6.40
2022-11-13T11:01:51.744Z,6.10
2022-11-13T11:04:43.113Z,7.33
2022-11-13T11:07:30.199Z,6.63
2022-11-13T11:10:28.494Z,6.77
2022-11-13T11:13:23.891Z,6.47
2022-11-13T11:16:15.272Z,7.00
2022-11-13T11:19:05.582Z,6.37
2022-11-13T11:22:10.754Z,6.57
2022-11-13T11:25:02.771Z,7.03
2022-11-13T11:27:57.441Z,7.00
2022-11-13T11:30:50.932Z,8.07
2022-11-13T11:33:44.304Z,7.07
2022-11-13T11:36:36.104Z,7.43
2022-11-13T11:39:32.036Z,8.53
2022-11-13T11:42:26.763Z,6.87
2022-11-13T11:45:17.434Z,7.23
2022-11-13T11:48:07.221Z,7.50
2022-11-13T11:51:02.437Z,7.40
2022-11-13T11:53:59.437Z,7.43
2022-11-13T11:56:52.299Z,7.20
2022-11-13T12:03:34.569Z,8.20
2022-11-13T12:06:31.295Z,7.37
2022-11-13T12:09:27.967Z,6.80
2022-11-13T12:12:26.045Z,6.93
2022-11-13T12:15:21.551Z,8.03
2022-11-13T12:18:15.666Z,9.87
2022-11-13T12:21:12.608Z,8.00
2022-11-13T12:24:18.958Z,7.27
2022-11-13T12:27:18.940Z,7.40
2022-11-13T12:30:15.173Z,7.00
2022-11-13T12:33:17.484Z,6.67
2022-11-13T12:36:05.130Z,7.73
2022-11-13T12:39:01.143Z,7.60
2022-11-13T12:41:54.749Z,8.37
2022-11-13T12:44:50.676Z,7.97
2022-11-13T12:47:39.110Z,8.17
2022-11-13T12:50:32.063Z,7.93
2022-11-13T12:53:27.327Z,7.40
2022-11-13T12:56:19.512Z,8.13
2022-11-13T12:59:30.487Z,8.17
2022-11-13T13:02:49.268Z,7.83
2022-11-13T13:05:58.463Z,7.73
2022-11-13T13:09:01.931Z,7.00
2022-11-13T13:11:59.528Z,7.23
2022-11-13T13:15:08.593Z,7.03
2022-11-13T13:18:06.186Z,6.83
2022-11-13T13:21:03.050Z,6.90
2022-11-13T13:23:51.407Z,6.67
2022-11-13T13:26:46.301Z,5.83
2022-11-13T13:29:34.991Z,6.30
2022-11-13T13:32:27.477Z,6.07
2022-11-13T13:35:19.163Z,6.27
2022-11-13T13:38:16.353Z,6.00
2022-11-13T13:41:18.113Z,5.77
2022-11-13T13:44:20.883Z,6.17
2022-11-13T13:47:16.017Z,6.20
2022-11-13T13:50:05.604Z,5.77
2022-11-13T13:52:55.996Z,6.30
2022-11-13T13:55:49.268Z,6.13
2022-11-13T13:58:38.013Z,5.77
2022-11-13T14:01:29.227Z,5.90
2022-11-13T14:04:19.704Z,5.97
2022-11-13T14:07:20.786Z,5.97
2022-11-13T14:10:15.831Z,5.90
2022-11-13T14:13:02.996Z,5.70
2022-11-13T14:15:49.499Z,6.67
2022-11-13T14:18:36.751Z,6.23
2022-11-13T14:21:25.000Z,6.60
2022-11-13T14:24:17.507Z,5.87
2022-11-13T14:27:09.514Z,6.47
2022-11-13T14:29:59.664Z,6.03
2022-11-13T14:32:47.398Z,6.67
2022-11-13T14:35:33.985Z,6.33
2022-11-13T14:38:23.333Z,6.93
2022-11-13T14:41:21.508Z,6.40
2022-11-13T14:44:11.745Z,7.07
2022-11-13T14:47:02.684Z,6.13
2022-11-13T14:49:49.219Z,6.47
2022-11-13T14:52:35.738Z,6.63
2022-11-13T14:55:23.794Z,7.03
2022-11-13T14:58:14.566Z,6.83
2022-11-13T15:01:15.685Z,7.00
2022-11-13T15:04:02.503Z,7.60
2022-11-13T15:06:50.848Z,6.70
2022-11-13T15:09:37.108Z,7.13
2022-11-13T15:12:23.547Z,6.33
2022-11-13T15:15:15.191Z,6.20
2022-11-13T15:18:03.575Z,7.53
2022-11-13T15:20:50.118Z,6.77
2022-11-13T15:23:36.889Z,7.53
2022-11-13T15:26:24.118Z,7.60
2022-11-13T15:29:11.007Z,6.97
2022-11-13T15:31:58.558Z,7.60
2022-11-13T15:34:46.632Z,7.43
2022-11-13T15:37:33.504Z,7.03
2022-11-13T15:40:20.105Z,6.80
2022-11-13T15:43:07.198Z,7.90
2022-11-13T15:45:53.425Z,7.30
2022-11-13T15:48:40.103Z,7.43
2022-11-13T15:51:33.188Z,7.40
2022-11-13T15:54:26.263Z,7.80
2022-11-13T15:57:19.174Z,7.63
2022-11-13T16:00:13.627Z,8.20
2022-11-13T16:03:00.052Z,8.20
2022-11-13T16:05:46.714Z,7.57
2022-11-13T16:08:34.645Z,7.17
2022-11-13T16:11:21.964Z,8.97
2022-11-13T16:14:08.976Z,9.47
2022-11-13T16:16:55.781Z,12.77
2022-11-13T16:19:43.411Z,9.37
2022-11-13T16:22:30.231Z,10.03
2022-11-13T16:25:21.162Z,9.00
2022-11-13T16:28:16.385Z,8.83
2022-11-13T16:31:03.647Z,16.53
2022-11-13T16:33:51.112Z,8.93
2022-11-13T16:36:37.736Z,9.37
2022-11-13T16:39:24.512Z,8.77
2022-11-13T16:42:12.873Z,8.30
2022-11-13T16:44:59.241Z,8.50
2022-11-13T16:47:46.545Z,7.37
2022-11-13T16:50:36.913Z,8.43
2022-11-13T16:53:23.357Z,11.60
2022-11-13T16:56:14.834Z,10.43
2022-11-13T16:59:02.626Z,8.80
2022-11-13T17:01:49.090Z,8.93
2022-11-13T17:04:35.583Z,8.57
2022-11-13T17:07:22.866Z,8.30
2022-11-13T17:13:19.275Z,8.87
2022-11-13T17:16:07.478Z,9.00
2022-11-13T17:18:54.793Z,10.73
2022-11-13T17:21:44.237Z,9.33
2022-11-13T17:24:31.121Z,9.53
2022-11-13T17:27:18.501Z,10.80
2022-11-13T17:30:05.615Z,10.63
2022-11-13T17:32:58.862Z,9.73
2022-11-13T17:35:46.440Z,11.07
2022-11-13T17:38:33.524Z,11.03
2022-11-13T17:41:19.708Z,9.33
2022-11-13T17:44:06.327Z,8.60
2022-11-13T17:46:53.838Z,10.77
2022-11-13T17:49:41.561Z,10.30
2022-11-13T17:52:28.683Z,9.77
2022-11-13T17:55:15.407Z,10.10
2022-11-13T17:58:02.849Z,9.70
2022-11-13T18:00:49.631Z,10.93
2022-11-13T18:03:36.427Z,10.40
2022-11-13T18:06:25.399Z,11.23
2022-11-13T18:09:12.458Z,12.63
2022-11-13T18:11:58.820Z,11.23
2022-11-13T18:14:52.258Z,10.57
2022-11-13T18:17:39.040Z,10.60
2022-11-13T18:20:25.751Z,11.57
2022-11-13T18:23:13.591Z,11.27
2022-11-13T18:26:07.691Z,9.57
2022-11-13T18:28:53.929Z,10.17
2022-11-13T18:31:40.627Z,11.80
2022-11-13T18:34:28.484Z,12.33
2022-11-13T18:37:15.005Z,12.67
2022-11-13T18:40:03.226Z,11.77
2022-11-13T18:42:50.992Z,15.03
2022-11-13T18:45:37.444Z,13.60
2022-11-13T18:48:23.759Z,9.73
2022-11-13T18:51:13.373Z,9.70
2022-11-13T18:53:59.884Z,28.57
2022-11-13T18:56:47.699Z,10.17
2022-11-13T18:59:34.441Z,12.67
2022-11-13T19:02:21.252Z,20.73
2022-11-13T19:05:07.826Z,16.13
2022-11-13T19:07:54.061Z,15.30
2022-11-13T19:10:42.031Z,10.43
2022-11-13T19:13:29.789Z,15.47
2022-11-13T19:16:18.958Z,11.90
2022-11-13T19:19:07.962Z,15.27
2022-11-13T19:21:54.341Z,12.57
2022-11-13T19:24:40.742Z,14.27
2022-11-13T19:27:27.072Z,15.33
2022-11-13T19:30:15.317Z,15.93
2022-11-13T19:33:01.938Z,17.53
2022-11-13T19:35:48.287Z,16.50
2022-11-13T19:38:34.786Z,15.57
2022-11-13T19:41:21.768Z,16.87
2022-11-13T19:44:10.352Z,16.80
2022-11-13T19:46:58.205Z,15.27
2022-11-13T19:49:44.900Z,15.93
2022-11-13T19:52:31.388Z,15.60
2022-11-13T19:55:17.882Z,19.57
2022-11-13T19:58:04.317Z,19.10
2022-11-13T20:00:51.097Z,17.13
2022-11-13T20:03:39.057Z,16.03
2022-11-13T20:06:26.967Z,17.37
2022-11-13T20:09:13.265Z,17.33
2022-11-13T20:12:00.073Z,15.23
2022-11-13T20:14:46.708Z,17.40
2022-11-13T20:17:33.182Z,14.33
2022-11-13T20:20:20.883Z,16.80
2022-11-13T20:23:07.310Z,14.23
2022-11-13T20:25:55.115Z,18.43
2022-11-13T20:28:41.500Z,16.17
2022-11-13T20:31:28.567Z,18.13
2022-11-13T20:34:15.648Z,16.67
2022-11-13T20:37:03.664Z,16.83
2022-11-13T20:39:50.039Z,17.23
2022-11-13T20:42:36.772Z,15.73
2022-11-13T20:45:22.904Z,16.97
2022-11-13T20:48:09.592Z,16.67
2022-11-13T20:50:56.223Z,19.30
2022-11-13T20:53:44.433Z,16.23
2022-11-13T20:56:30.975Z,15.17
2022-11-13T20:59:17.493Z,15.20
2022-11-13T21:02:04.171Z,15.17
2022-11-13T21:04:50.621Z,14.40
2022-11-13T21:07:37.319Z,15.37
2022-11-13T21:10:25.194Z,15.83
2022-11-13T21:13:11.304Z,13.10
2022-11-13T21:15:57.793Z,13.57
2022-11-13T21:18:44.378Z,13.43
2022-11-13T21:21:31.743Z,14.83
2022-11-13T21:24:18.507Z,12.23
2022-11-13T21:27:06.473Z,15.47
2022-11-13T21:29:53.830Z,14.77
2022-11-13T21:32:40.916Z,14.87
2022-11-13T21:35:28.021Z,16.27
2022-11-13T21:38:14.482Z,14.80
2022-11-13T21:41:15.532Z,16.03
2022-11-13T21:44:05.636Z,15.40
2022-11-13T21:46:52.191Z,16.40
2022-11-13T21:49:38.698Z,15.37
2022-11-13T21:52:25.098Z,16.87
2022-11-13T21:55:11.382Z,17.07
2022-11-13T21:57:57.920Z,19.20
2022-11-13T22:00:45.925Z,16.77
2022-11-13T22:03:33.040Z,16.90
2022-11-13T22:06:21.989Z,17.20
2022-11-13T22:09:15.169Z,16.47
2022-11-13T22:12:01.775Z,16.90
2022-11-13T22:14:48.092Z,15.50
2022-11-13T22:17:35.889Z,17.27
2022-11-13T22:20:22.473Z,17.70
2022-11-13T22:23:09.321Z,17.53
2022-11-13T22:26:00.608Z,17.23
2022-11-13T22:28:51.548Z,15.93
2022-11-13T22:31:38.256Z,15.23
2022-11-13T22:34:25.883Z,15.90
2022-11-13T22:37:12.447Z,15.50
2022-11-13T22:39:58.900Z,14.20
2022-11-13T22:42:45.257Z,13.97
2022-11-13T22:45:33.944Z,13.60
2022-11-13T22:48:20.268Z,12.67
2022-11-13T22:51:12.569Z,13.63
2022-11-13T22:54:01.105Z,12.93
2022-11-13T22:56:47.789Z,14.63
2022-11-13T22:59:34.516Z,13.93
2022-11-13T23:02:20.762Z,14.80
2022-11-13T23:05:10.087Z,14.23
2022-11-13T23:07:58.331Z,14.17
2022-11-13T23:10:44.651Z,14.07
2022-11-13T23:13:30.855Z,12.57
2022-11-13T23:16:18.283Z,12.57
2022-11-13T23:19:05.475Z,13.83
2022-11-13T23:21:52.049Z,13.17
2022-11-13T23:24:40.110Z,12.10
2022-11-13T23:27:26.716Z,11.80
2022-11-13T23:30:13.535Z,10.67
2022-11-13T23:32:59.867Z,11.50
2022-11-13T23:35:46.670Z,12.07
2022-11-13T23:38:32.928Z,10.27
2022-11-13T23:41:20.823Z,10.20
2022-11-13T23:44:09.099Z,10.70
2022-11-13T23:46:56.541Z,10.40
2022-11-13T23:49:43.172Z,9.17
2022-11-13T23:52:29.430Z,9.43
2022-11-13T23:55:16.994Z,10.10
2022-11-13T23:58:06.271Z,9.93
